x

South Santa Rosa Is. Ca (46069) Wave Buoy

12:50 - Sun 26th Apr 2015 All times are PDT. -7 hours from GMT.

  • Sig Wave height 9.8ft
  • Peak Period 8s
  • Average Period 6s
  • Wind
    29mph, 36mph gusts
  • Sea Temp 59°f
  • Luft Temp 56°f
  • Sea Pressure 1015.3mb
  • South Santa Rosa Is. Ca
  • South Santa Rosa Is. Ca

More Historic Weather Station data

Upgrade to MSW Pro to gain access to the past 30 days of data for over 8000 Wavebouys and Weather Stations around the globe.

Join Pro

Comparision Forecast

View Surf forecast
   
So 04/26 12:50 10ft 8s 6s 29 36 mph 1015.3mb 59f 56f
Sa 04/25 11:50 10.5ft 14s 7s 31 38 mph 1015.3mb 59f 57f
10:50 11ft 7s 6s 29 36 mph 1015.5mb 59f 57f
9:50 10.5ft 7s 6s 31 40 mph 1015.3mb 59f 57f
8:50 10ft 7s 6s 29 34 mph 1015.2mb 59f 57f
7:50 9.5ft 7s 6s 29 36 mph 1014.3mb 60f 58f
6:50 9ft 13s 6s 29 36 mph 1014.1mb 60f 58f
5:50 8.5ft 14s 6s 27 31 mph 1013.9mb 60f 58f
4:50 8ft 15s 6s 27 34 mph 1014mb 60f 58f
3:50 7.5ft 14s 6s 22 29 mph 1014.3mb 60f 59f
2:50 8ft 14s 7s 20 27 mph 1014.9mb 60f 59f
1:50 7.5ft 15s 7s 20 22 mph 1015.2mb 60f 59f
12:50 7.5ft 15s 7s 20 22 mph 1015.6mb 60f 59f
11:50 7ft 15s 7s 20 25 mph 1016mb 60f 60f
10:50 7ft 16s 7s 18 20 mph 1016.3mb 60f 60f
9:50 7ft 16s 7s 18 20 mph 1016.2mb 59f 59f
8:50 6ft 16s 6s 18 22 mph 1016.1mb 59f 59f
7:50 6ft 16s 6s 18 20 mph 1016mb 59f 58f
6:50 6ft 7s 6s 16 18 mph 1015.9mb 59f 57f
5:50 6ft 6s 6s 16 18 mph 1015.4mb 59f 57f
4:50 6ft 16s 6s 25 31 mph 1015.4mb 59f 58f
3:50 6.5ft 6s 6s 25 31 mph 1015.2mb 60f 58f
2:50 6.5ft 7s 5s 25 29 mph 1015.4mb 60f 58f
1:50 7ft 7s 6s 22 29 mph 1015.8mb 60f 58f
12:50 7ft 8s 6s 20 27 mph 1016.3mb 60f 57f
Fr 04/24 11:50 6ft 7s 5s 25 29 mph 1016.1mb 60f 57f
10:50 7ft 6s 6s 25 29 mph 1016.4mb 60f 58f
9:50 6ft 5s 5s 22 27 mph 1016.8mb 60f 58f
8:50 6.5ft 10s 6s 25 29 mph 1016.4mb 60f 58f
7:50 6.5ft 9s 6s 25 27 mph 1015.8mb 60f 58f
6:50 7ft 9s 6s 22 27 mph 1015.5mb 60f 58f
5:50 7ft 11s 6s 22 27 mph 1015.5mb 60f 58f
4:50 7ft 10s 6s 22 27 mph 1015.5mb 60f 59f
3:50 8.5ft 10s 6s 27 31 mph 1015.2mb 60f 59f
2:50 8ft 11s 6s 22 29 mph 1015.6mb 60f 58f
1:50 7ft 10s 7s 18 22 mph 1016.2mb 60f 58f
12:50 7.5ft 10s 7s 18 22 mph 1016.5mb 60f 57f
11:50 7.5ft 11s 6s 20 25 mph 1016.7mb 60f 57f
10:50 7.5ft 11s 6s 25 29 mph 1016.3mb 59f 57f
9:50 8ft 10s 6s 27 31 mph 1015.9mb 59f 56f
8:50 8ft 11s 6s 27 31 mph 1015.2mb 59f 56f
7:50 8ft 11s 7s 25 29 mph 1014.5mb 59f 56f
6:50 8ft 11s 7s 22 27 mph 1014mb 59f 55f
5:50 8ft 11s 7s 18 22 mph 1013.6mb 59f 56f
4:50 8ft 11s 7s 20 27 mph 1013.4mb 59f 56f
3:50 8ft 11s 7s 20 25 mph 1013.5mb 60f 56f
2:50 9ft 10s 7s 18 25 mph 1013.2mb 60f 56f
1:50 9.5ft 11s 7s 20 22 mph 1013.6mb 60f 56f
12:50 9.5ft 11s 7s 22 27 mph 1013.8mb 60f 56f
Do 04/23 11:50 10ft 12s 7s 22 27 mph 1013.8mb 60f 57f
10:50 9ft 12s 7s 22 27 mph 1013.8mb 60f 57f
9:50 8.5ft 11s 7s 22 27 mph 1013.8mb 60f 57f
8:50 8ft 11s 7s 25 29 mph 1013mb 60f 56f
7:50 8ft 12s 7s 22 27 mph 1012.7mb 60f 56f
6:50 8ft 12s 7s 20 22 mph 1012.5mb 60f 56f
5:50 7ft 12s 7s 20 25 mph 1012.2mb 60f 57f
4:50 8ft 12s 7s 20 25 mph 1012.1mb 60f 56f
3:50 9ft 12s 8s 18 22 mph 1012.5mb 60f 56f
2:50 8.5ft 12s 8s 18 22 mph 1012.7mb 60f 56f
1:50 8ft 13s 8s 16 20 mph 1012.9mb 60f 55f
12:50 8.5ft 11s 9s 11 13 mph 1013.3mb 60f 55f
11:50 8ft 11s 9s 11 13 mph 1013.5mb 60f 56f
10:50 9ft 11s 9s 9 11 mph 1013.5mb 60f 56f
9:50 9.5ft 12s 9s 13 16 mph 1013.2mb 60f 55f
8:50 8.5ft 13s 9s 11 13 mph 1013.1mb 60f 55f
7:50 7ft 13s 8s 11 13 mph 1012.8mb 60f 56f
6:50 8.5ft 12s 8s 13 16 mph 1012.2mb 60f 56f
5:50 9.5ft 12s 9s 13 18 mph 1011.7mb 60f 56f
4:50 10ft 13s 9s 16 20 mph 1011.4mb 60f 56f
3:50 9ft 12s 8s 16 20 mph 1011.4mb 60f 56f
2:50 8.5ft 13s 8s 18 20 mph 1011.5mb 60f 56f
1:50 9.5ft 12s 8s 18 20 mph 1011.6mb 60f 57f
12:50 8.5ft 13s 8s 18 22 mph 1011.9mb 60f 57f
Mi 04/22 11:50 8ft 13s 8s 18 22 mph 1011.9mb 60f 57f
10:50 8ft 13s 7s 20 22 mph 1012.3mb 60f 56f
9:50 7ft 13s 7s 18 22 mph 1012.5mb 60f 57f
8:50 8ft 13s 7s 20 22 mph 1012.4mb 60f 56f
7:50 8ft 13s 8s 18 22 mph 1012.1mb 60f 57f
6:50 8ft 11s 7s 18 22 mph 1012mb 60f 56f
5:50 8.5ft 12s 8s 18 20 mph 1012.1mb 60f 57f
4:50 8ft 11s 7s 18 20 mph 1012.1mb 60f 57f
3:50 7ft 10s 7s 18 22 mph 1012.3mb 60f 57f
2:50 6.5ft 14s 7s 16 18 mph 1012.8mb 60f 57f
1:50 6ft 14s 8s 13 16 mph 1012.9mb 60f 57f
12:50 5.5ft 14s 8s 11 13 mph 1013.1mb 60f 57f
11:50 4.5ft 15s 8s 11 13 mph 1013.1mb 60f 57f
10:50 5ft 13s 8s 7 9 mph 1013.1mb 60f 57f
9:50 4.5ft 13s 8s 9 11 mph 1013.1mb 60f 57f